createdAt,value
2018-09-27T00:01:54.036Z,2.87
2018-09-27T00:04:21.054Z,2.97
2018-09-27T00:06:48.153Z,5.00
2018-09-27T00:09:15.695Z,3.60
2018-09-27T00:11:42.822Z,2.33
2018-09-27T00:14:09.910Z,2.60
2018-09-27T00:16:36.955Z,3.53
2018-09-27T00:19:04.046Z,5.57
2018-09-27T00:21:31.080Z,2.20
2018-09-27T00:23:58.454Z,2.80
2018-09-27T00:26:25.534Z,2.37
2018-09-27T00:28:52.547Z,4.53
2018-09-27T00:31:20.011Z,2.97
2018-09-27T00:33:47.094Z,3.17
2018-09-27T00:36:14.155Z,3.40
2018-09-27T00:38:42.768Z,4.30
2018-09-27T00:41:09.965Z,4.17
2018-09-27T00:43:38.071Z,3.37
2018-09-27T00:46:07.537Z,3.63
2018-09-27T00:48:34.683Z,3.80
2018-09-27T00:51:02.622Z,2.60
2018-09-27T00:53:29.949Z,3.30
2018-09-27T00:55:56.982Z,2.40
2018-09-27T00:58:23.937Z,2.87
2018-09-27T01:00:50.959Z,2.80
2018-09-27T01:03:17.973Z,2.50
2018-09-27T01:05:45.155Z,2.87
2018-09-27T01:08:12.257Z,2.60
2018-09-27T01:10:40.731Z,2.83
2018-09-27T01:13:07.752Z,3.40
2018-09-27T01:15:34.818Z,3.23
2018-09-27T01:18:01.834Z,3.20
2018-09-27T01:20:28.829Z,2.80
2018-09-27T01:22:55.856Z,2.97
2018-09-27T01:25:22.832Z,3.70
2018-09-27T01:27:49.819Z,2.93
2018-09-27T01:30:17.235Z,3.20
2018-09-27T01:32:44.247Z,3.50
2018-09-27T01:35:11.247Z,3.17
2018-09-27T01:37:38.491Z,3.53
2018-09-27T01:40:05.586Z,3.13
2018-09-27T01:42:32.637Z,3.03
2018-09-27T01:44:59.940Z,2.87
2018-09-27T01:47:27.082Z,3.03
2018-09-27T01:49:54.114Z,3.10
2018-09-27T01:52:21.112Z,3.50
2018-09-27T01:54:48.203Z,3.07
2018-09-27T01:57:15.306Z,3.33
2018-09-27T01:59:42.428Z,3.67
2018-09-27T02:02:09.573Z,3.17
2018-09-27T02:04:36.606Z,3.77
2018-09-27T02:07:03.844Z,2.80
2018-09-27T02:09:30.951Z,3.27
2018-09-27T02:11:57.926Z,3.27
2018-09-27T02:14:25.226Z,3.20
2018-09-27T02:16:52.239Z,3.00
2018-09-27T02:19:19.188Z,3.00
2018-09-27T02:21:46.642Z,2.93
2018-09-27T02:24:13.887Z,4.00
2018-09-27T02:26:40.909Z,3.63
2018-09-27T02:29:08.229Z,3.40
2018-09-27T02:31:35.212Z,3.10
2018-09-27T02:34:02.207Z,3.40
2018-09-27T02:36:29.679Z,3.80
2018-09-27T02:38:56.766Z,3.20
2018-09-27T02:41:23.759Z,3.93
2018-09-27T02:43:50.907Z,3.83
2018-09-27T02:46:17.947Z,4.43
2018-09-27T02:48:45.514Z,4.10
2018-09-27T02:51:13.914Z,3.80
2018-09-27T02:53:41.253Z,4.30
2018-09-27T02:56:08.296Z,4.00
2018-09-27T02:58:35.586Z,3.93
2018-09-27T03:01:02.620Z,3.87
2018-09-27T03:03:29.614Z,3.90
2018-09-27T03:05:56.618Z,4.47
2018-09-27T03:08:23.607Z,3.87
2018-09-27T03:10:50.672Z,4.37
2018-09-27T03:13:17.698Z,4.17
2018-09-27T03:15:44.665Z,4.20
2018-09-27T03:18:11.773Z,4.83
2018-09-27T03:20:39.194Z,4.10
2018-09-27T03:23:06.283Z,4.83
2018-09-27T03:25:33.257Z,3.77
2018-09-27T03:28:00.758Z,4.40
2018-09-27T03:30:28.563Z,4.40
2018-09-27T03:32:55.634Z,4.67
2018-09-27T03:35:22.722Z,4.47
2018-09-27T03:37:49.731Z,4.20
2018-09-27T03:40:16.886Z,3.90
2018-09-27T03:42:43.911Z,4.40
2018-09-27T03:45:10.878Z,4.37
2018-09-27T03:47:37.866Z,4.50
2018-09-27T03:50:04.862Z,4.50
2018-09-27T03:52:31.816Z,4.70
2018-09-27T03:54:58.802Z,4.40
2018-09-27T03:57:26.141Z,4.20
2018-09-27T03:59:53.132Z,4.37
2018-09-27T04:02:20.254Z,4.30
2018-09-27T04:04:47.263Z,4.50
2018-09-27T04:07:14.311Z,4.30
2018-09-27T04:09:41.285Z,4.17
2018-09-27T04:12:08.575Z,4.60
2018-09-27T04:14:35.574Z,3.80
2018-09-27T04:17:02.666Z,4.57
2018-09-27T04:19:29.710Z,4.10
2018-09-27T04:21:56.718Z,4.00
2018-09-27T04:24:23.729Z,4.10
2018-09-27T04:26:50.771Z,4.40
2018-09-27T04:29:17.725Z,4.83
2018-09-27T04:31:44.777Z,4.00
2018-09-27T04:34:11.892Z,4.30
2018-09-27T04:36:38.856Z,4.27
2018-09-27T04:39:07.250Z,4.50
2018-09-27T04:41:34.290Z,4.00
2018-09-27T04:44:01.327Z,4.70
2018-09-27T04:46:28.348Z,4.03
2018-09-27T04:48:55.777Z,5.87
2018-09-27T04:51:22.784Z,4.67
2018-09-27T04:53:49.802Z,4.80
2018-09-27T04:56:17.130Z,5.00
2018-09-27T04:58:44.110Z,4.87
2018-09-27T05:01:11.167Z,5.07
2018-09-27T05:03:38.489Z,4.53
2018-09-27T05:06:05.496Z,4.47
2018-09-27T05:08:32.607Z,4.83
2018-09-27T05:10:59.645Z,4.80
2018-09-27T05:13:26.714Z,4.70
2018-09-27T05:15:53.783Z,5.00
2018-09-27T05:18:21.147Z,4.37
2018-09-27T05:20:48.218Z,4.77
2018-09-27T05:23:15.295Z,4.70
2018-09-27T05:25:42.357Z,4.40
2018-09-27T05:28:09.458Z,4.80
2018-09-27T05:30:36.557Z,5.40
2018-09-27T05:33:03.619Z,5.23
2018-09-27T05:35:30.569Z,5.00
2018-09-27T05:37:57.530Z,4.90
2018-09-27T05:40:24.885Z,4.60
2018-09-27T05:42:51.939Z,4.83
2018-09-27T05:45:19.006Z,5.53
2018-09-27T05:47:46.059Z,6.60
2018-09-27T05:50:13.041Z,5.40
2018-09-27T05:52:40.018Z,4.97
2018-09-27T05:55:07.369Z,6.87
2018-09-27T05:57:34.484Z,7.70
2018-09-27T06:00:01.518Z,6.27
2018-09-27T06:02:28.571Z,6.57
2018-09-27T06:04:55.569Z,5.37
2018-09-27T06:07:22.562Z,4.80
2018-09-27T06:09:49.555Z,7.57
2018-09-27T06:12:16.575Z,4.80
2018-09-27T06:14:43.589Z,4.33
2018-09-27T06:17:10.602Z,4.60
2018-09-27T06:19:37.609Z,5.70
2018-09-27T06:22:04.614Z,4.57
2018-09-27T06:24:31.644Z,4.20
2018-09-27T06:26:58.622Z,4.67
2018-09-27T06:29:25.646Z,5.13
2018-09-27T06:31:52.691Z,5.50
2018-09-27T06:34:19.721Z,5.90
2018-09-27T06:36:46.749Z,4.37
2018-09-27T06:39:14.069Z,4.47
2018-09-27T06:41:41.097Z,4.53
2018-09-27T06:44:08.040Z,4.70
2018-09-27T06:46:35.086Z,6.77
2018-09-27T06:49:06.179Z,5.40
2018-09-27T06:51:35.079Z,5.03
2018-09-27T06:54:02.490Z,6.83
2018-09-27T06:56:29.528Z,5.70
2018-09-27T06:58:56.498Z,4.37
2018-09-27T07:01:24.862Z,4.20
2018-09-27T07:03:52.067Z,4.20
2018-09-27T07:06:19.101Z,4.53
2018-09-27T07:08:46.386Z,4.00
2018-09-27T07:11:13.430Z,4.50
2018-09-27T07:13:40.519Z,4.23
2018-09-27T07:16:07.522Z,4.30
2018-09-27T07:18:34.523Z,4.07
2018-09-27T07:21:01.526Z,4.33
2018-09-27T07:23:28.632Z,4.73
2018-09-27T07:25:55.596Z,4.03
2018-09-27T07:28:22.631Z,4.03
2018-09-27T07:30:50.060Z,4.40
2018-09-27T07:33:17.146Z,4.27
2018-09-27T07:35:44.261Z,4.87
2018-09-27T07:38:11.406Z,4.60
2018-09-27T07:40:38.356Z,4.60
2018-09-27T07:43:05.350Z,4.23
2018-09-27T07:45:35.182Z,5.30
2018-09-27T07:48:04.762Z,8.37
2018-09-27T07:50:34.976Z,4.93
2018-09-27T07:53:02.082Z,4.93
2018-09-27T07:55:29.066Z,5.60
2018-09-27T07:57:56.466Z,5.60
2018-09-27T08:00:23.450Z,8.47
2018-09-27T08:02:50.528Z,13.30
2018-09-27T08:05:17.515Z,7.07
2018-09-27T08:07:44.571Z,9.27
2018-09-27T08:10:11.601Z,8.80
2018-09-27T08:12:39.029Z,8.53
2018-09-27T08:15:06.244Z,7.30
2018-09-27T08:17:33.333Z,7.90
2018-09-27T08:20:00.883Z,7.57
2018-09-27T08:22:27.974Z,10.10
2018-09-27T08:24:55.057Z,9.10
2018-09-27T08:27:22.212Z,12.67
2018-09-27T08:29:49.275Z,7.87
2018-09-27T08:32:16.333Z,7.13
2018-09-27T08:34:43.463Z,14.40
2018-09-27T08:37:10.541Z,12.80
2018-09-27T08:39:37.686Z,10.90
2018-09-27T08:42:04.996Z,10.30
2018-09-27T08:44:32.088Z,5.07
2018-09-27T08:46:59.134Z,4.60
2018-09-27T08:49:28.291Z,5.27
2018-09-27T08:51:55.707Z,7.73
2018-09-27T08:54:22.789Z,5.80
2018-09-27T08:56:50.288Z,13.40
2018-09-27T08:59:17.418Z,4.03
2018-09-27T09:01:44.618Z,4.80
2018-09-27T09:04:12.317Z,5.17
2018-09-27T09:06:39.444Z,4.40
2018-09-27T09:09:08.131Z,5.23
2018-09-27T09:11:35.538Z,6.57
2018-09-27T09:14:02.698Z,4.20
2018-09-27T09:16:29.744Z,4.53
2018-09-27T09:18:57.264Z,4.83
2018-09-27T09:21:24.390Z,4.50
2018-09-27T09:23:51.450Z,7.87
2018-09-27T09:26:18.975Z,5.03
2018-09-27T09:28:46.101Z,3.30
2018-09-27T09:31:13.260Z,3.30
2018-09-27T09:33:40.422Z,3.63
2018-09-27T09:36:07.543Z,4.90
2018-09-27T09:38:34.603Z,3.30
2018-09-27T09:41:01.989Z,6.07
2018-09-27T09:43:29.142Z,6.90
2018-09-27T09:45:56.322Z,12.43
2018-09-27T09:48:23.774Z,3.33
2018-09-27T09:50:50.845Z,5.20
2018-09-27T09:53:17.954Z,6.33
2018-09-27T09:55:45.034Z,3.70
2018-09-27T09:58:12.117Z,7.70
2018-09-27T10:00:39.197Z,2.90
2018-09-27T10:03:07.189Z,3.40
2018-09-27T10:05:34.326Z,5.90
2018-09-27T10:08:05.618Z,3.50
2018-09-27T10:10:32.772Z,5.83
2018-09-27T10:13:00.143Z,5.33
2018-09-27T10:15:27.286Z,2.70
2018-09-27T10:17:54.485Z,7.73
2018-09-27T10:20:21.602Z,6.00
2018-09-27T10:22:48.763Z,2.50
2018-09-27T10:25:16.186Z,3.27
2018-09-27T10:27:47.131Z,2.77
2018-09-27T10:30:14.580Z,5.03
2018-09-27T10:32:41.795Z,14.57
2018-09-27T10:35:08.940Z,2.23
2018-09-27T10:37:36.102Z,4.10
2018-09-27T10:40:03.628Z,4.40
2018-09-27T10:42:30.713Z,2.50
2018-09-27T10:44:57.842Z,3.10
2018-09-27T10:47:25.194Z,2.90
2018-09-27T10:49:52.350Z,5.40
2018-09-27T10:52:19.479Z,2.03
2018-09-27T10:54:46.612Z,2.40
2018-09-27T10:57:13.707Z,1.80
2018-09-27T10:59:40.840Z,2.00
2018-09-27T11:02:08.221Z,1.70
2018-09-27T11:04:35.302Z,1.53
2018-09-27T11:07:02.474Z,2.90
2018-09-27T11:09:29.621Z,1.80
2018-09-27T11:11:56.696Z,1.50
2018-09-27T11:14:23.773Z,1.30
2018-09-27T11:16:51.255Z,1.40
2018-09-27T11:19:18.303Z,2.10
2018-09-27T11:21:45.397Z,2.27
2018-09-27T11:24:12.858Z,1.83
2018-09-27T11:26:40.010Z,1.80
2018-09-27T11:29:13.273Z,3.20
2018-09-27T11:31:46.105Z,3.70
2018-09-27T11:34:13.288Z,2.47
2018-09-27T11:36:40.373Z,1.50
2018-09-27T11:39:08.268Z,1.33
2018-09-27T11:41:35.373Z,1.90
2018-09-27T11:44:02.634Z,1.83
2018-09-27T11:46:29.690Z,1.50
2018-09-27T11:48:57.410Z,1.60
2018-09-27T11:51:24.576Z,2.00
2018-09-27T11:53:51.670Z,1.83
2018-09-27T11:56:19.115Z,1.50
2018-09-27T11:58:46.324Z,2.43
2018-09-27T12:01:13.462Z,1.70
2018-09-27T12:03:48.021Z,1.40
2018-09-27T12:06:15.335Z,2.17
2018-09-27T12:08:42.442Z,1.90
2018-09-27T12:11:09.900Z,1.73
2018-09-27T12:13:38.350Z,1.63
2018-09-27T12:16:05.814Z,2.00
2018-09-27T12:18:33.402Z,1.97
2018-09-27T12:21:00.543Z,1.87
2018-09-27T12:23:27.700Z,1.70
2018-09-27T12:25:55.085Z,2.07
2018-09-27T12:28:22.208Z,1.53
2018-09-27T12:30:49.314Z,1.27
2018-09-27T12:33:16.475Z,1.73
2018-09-27T12:35:43.538Z,4.43
2018-09-27T12:38:10.713Z,1.60
2018-09-27T12:40:38.220Z,4.40
2018-09-27T12:43:05.927Z,3.33
2018-09-27T12:45:33.115Z,2.20
2018-09-27T12:48:00.507Z,1.80
2018-09-27T12:50:27.776Z,1.90
2018-09-27T12:52:55.050Z,1.67
2018-09-27T12:55:22.384Z,2.33
2018-09-27T12:57:49.416Z,3.00
2018-09-27T13:00:16.505Z,2.73
2018-09-27T13:02:43.694Z,3.80
2018-09-27T13:05:10.698Z,2.57
2018-09-27T13:07:37.838Z,3.13
2018-09-27T13:10:05.513Z,2.63
2018-09-27T13:12:32.646Z,2.37
2018-09-27T13:14:59.797Z,2.20
2018-09-27T13:17:27.003Z,2.17
2018-09-27T13:19:54.134Z,4.13
2018-09-27T13:22:21.198Z,3.20
2018-09-27T13:24:48.678Z,2.80
2018-09-27T13:27:15.765Z,2.20
2018-09-27T13:29:42.874Z,2.40
2018-09-27T13:32:10.575Z,2.40
2018-09-27T13:34:37.619Z,2.80
2018-09-27T13:37:04.689Z,2.57
2018-09-27T13:39:31.833Z,2.70
2018-09-27T13:41:58.989Z,2.87
2018-09-27T13:44:26.035Z,3.67
2018-09-27T13:46:53.204Z,2.40
2018-09-27T13:49:20.326Z,2.30
2018-09-27T13:51:47.506Z,2.67
2018-09-27T13:54:14.643Z,3.57
2018-09-27T13:56:41.758Z,2.50
2018-09-27T13:59:08.936Z,3.07
2018-09-27T14:01:36.436Z,3.13
2018-09-27T14:04:04.423Z,2.93
2018-09-27T14:06:31.601Z,3.13
2018-09-27T14:08:59.002Z,2.87
2018-09-27T14:11:26.215Z,3.40
2018-09-27T14:13:53.605Z,2.70
2018-09-27T14:16:20.782Z,4.30
2018-09-27T14:18:47.942Z,2.90
2018-09-27T14:21:15.140Z,4.47
2018-09-27T14:23:42.246Z,4.13
2018-09-27T14:26:09.362Z,2.80
2018-09-27T14:28:36.442Z,2.60
2018-09-27T14:31:03.839Z,3.53
2018-09-27T14:33:30.963Z,3.80
2018-09-27T14:35:58.094Z,3.40
2018-09-27T14:38:25.502Z,4.00
2018-09-27T14:40:53.686Z,3.60
2018-09-27T14:43:20.766Z,3.77
2018-09-27T14:45:49.046Z,3.40
2018-09-27T14:48:16.167Z,3.50
2018-09-27T14:50:43.495Z,3.53
2018-09-27T14:53:10.952Z,2.80
2018-09-27T14:55:38.068Z,3.80
2018-09-27T14:58:05.273Z,3.47
2018-09-27T15:00:32.384Z,4.27
2018-09-27T15:02:59.454Z,4.03
2018-09-27T15:05:26.558Z,3.40
2018-09-27T15:07:53.765Z,3.60
2018-09-27T15:10:21.497Z,7.13
2018-09-27T15:12:48.718Z,3.80
2018-09-27T15:15:16.042Z,3.60
2018-09-27T15:17:43.229Z,3.40
2018-09-27T15:20:10.343Z,4.07
2018-09-27T15:22:37.513Z,3.83
2018-09-27T15:25:04.630Z,4.13
2018-09-27T15:27:31.820Z,4.03
2018-09-27T15:29:59.007Z,3.87
2018-09-27T15:32:26.124Z,3.87
2018-09-27T15:34:53.200Z,4.07
2018-09-27T15:37:20.722Z,4.00
2018-09-27T15:39:47.967Z,3.70
2018-09-27T15:42:15.728Z,5.10
2018-09-27T15:44:42.784Z,5.50
2018-09-27T15:47:09.910Z,4.47
2018-09-27T15:49:37.021Z,4.70
2018-09-27T15:52:04.401Z,4.13
2018-09-27T15:54:31.514Z,5.17
2018-09-27T15:56:58.564Z,5.27
2018-09-27T15:59:25.675Z,4.50
2018-09-27T16:01:52.716Z,4.37
2018-09-27T16:04:19.849Z,5.23
2018-09-27T16:06:46.985Z,3.90
2018-09-27T16:09:14.128Z,4.30
2018-09-27T16:11:41.784Z,5.67
2018-09-27T16:14:09.173Z,4.20
2018-09-27T16:16:36.285Z,5.03
2018-09-27T16:19:03.424Z,5.13
2018-09-27T16:21:30.505Z,6.53
2018-09-27T16:23:57.599Z,4.93
2018-09-27T16:26:24.880Z,4.87
2018-09-27T16:28:52.413Z,4.93
2018-09-27T16:31:19.612Z,5.00
2018-09-27T16:33:46.795Z,5.53
2018-09-27T16:36:14.241Z,4.90
2018-09-27T16:38:41.346Z,4.70
2018-09-27T16:41:08.489Z,5.60
2018-09-27T16:43:35.631Z,6.23
2018-09-27T16:46:02.710Z,6.10
2018-09-27T16:48:29.828Z,5.40
2018-09-27T16:50:57.015Z,5.83
2018-09-27T16:53:24.120Z,5.23
2018-09-27T16:55:51.267Z,5.87
2018-09-27T16:58:19.802Z,5.80
2018-09-27T17:00:46.900Z,6.90
2018-09-27T17:03:14.026Z,6.20
2018-09-27T17:05:41.113Z,6.67
2018-09-27T17:08:08.192Z,6.77
2018-09-27T17:10:35.336Z,6.50
2018-09-27T17:13:02.766Z,7.40
2018-09-27T17:15:29.862Z,6.90
2018-09-27T17:17:57.014Z,7.50
2018-09-27T17:20:24.466Z,7.40
2018-09-27T17:22:51.646Z,6.47
2018-09-27T17:25:18.920Z,7.57
2018-09-27T17:27:46.089Z,6.57
2018-09-27T17:30:13.134Z,6.07
2018-09-27T17:32:40.285Z,7.53
2018-09-27T17:35:07.823Z,8.43
2018-09-27T17:37:35.152Z,6.40
2018-09-27T17:40:02.282Z,7.10
2018-09-27T17:42:29.596Z,7.37
2018-09-27T17:44:56.822Z,6.70
2018-09-27T17:47:27.464Z,8.97
2018-09-27T17:49:54.873Z,7.30
2018-09-27T17:52:22.034Z,7.30
2018-09-27T17:54:49.546Z,7.60
2018-09-27T17:57:20.759Z,5.83
2018-09-27T17:59:48.506Z,5.43
2018-09-27T18:02:15.717Z,6.47
2018-09-27T18:04:42.920Z,6.80
2018-09-27T18:07:10.062Z,6.20
2018-09-27T18:09:37.173Z,6.07
2018-09-27T18:12:04.359Z,7.53
2018-09-27T18:14:31.431Z,7.10
2018-09-27T18:16:58.559Z,5.73
2018-09-27T18:19:25.976Z,6.10
2018-09-27T18:21:53.133Z,6.40
2018-09-27T18:24:20.244Z,7.23
2018-09-27T18:26:47.431Z,6.00
2018-09-27T18:29:14.494Z,6.80
2018-09-27T18:31:41.681Z,6.00
2018-09-27T18:34:08.974Z,6.43
2018-09-27T18:36:36.104Z,6.13
2018-09-27T18:39:04.947Z,7.90
2018-09-27T18:41:32.069Z,6.30
2018-09-27T18:43:59.147Z,6.47
2018-09-27T18:46:26.303Z,9.90
2018-09-27T18:48:53.439Z,8.97
2018-09-27T18:51:20.559Z,7.47
2018-09-27T18:53:47.713Z,9.37
2018-09-27T18:56:15.064Z,9.50
2018-09-27T18:58:42.126Z,9.87
2018-09-27T19:01:09.294Z,10.23
2018-09-27T19:03:36.702Z,6.20
2018-09-27T19:06:03.821Z,9.60
2018-09-27T19:08:30.924Z,37.87
2018-09-27T19:10:58.466Z,16.37
2018-09-27T19:13:25.488Z,7.70
2018-09-27T19:15:52.925Z,16.53
2018-09-27T19:18:20.063Z,28.60
2018-09-27T19:20:47.181Z,48.93
2018-09-27T19:23:15.037Z,28.50
2018-09-27T19:25:42.253Z,23.50
2018-09-27T19:28:09.416Z,10.40
2018-09-27T19:30:36.649Z,15.70
2018-09-27T19:33:04.118Z,44.00
2018-09-27T19:35:31.185Z,31.47
2018-09-27T19:37:58.267Z,23.30
2018-09-27T19:40:25.693Z,33.63
2018-09-27T19:42:52.824Z,11.50
2018-09-27T19:45:19.876Z,13.67
2018-09-27T19:47:47.289Z,13.50
2018-09-27T19:50:14.530Z,20.83
2018-09-27T19:52:41.669Z,15.77
2018-09-27T19:55:08.730Z,12.03
2018-09-27T19:57:35.875Z,21.40
2018-09-27T20:00:03.008Z,23.07
2018-09-27T20:02:30.546Z,10.37
2018-09-27T20:04:57.641Z,13.20
2018-09-27T20:07:24.809Z,8.70
2018-09-27T20:09:52.028Z,22.70
2018-09-27T20:12:19.076Z,13.00
2018-09-27T20:14:46.163Z,16.30
2018-09-27T20:17:13.320Z,19.07
2018-09-27T20:19:40.470Z,12.50
2018-09-27T20:22:07.829Z,13.67
2018-09-27T20:24:34.887Z,17.33
2018-09-27T20:27:01.994Z,15.93
2018-09-27T20:29:29.147Z,11.33
2018-09-27T20:31:56.580Z,10.93
2018-09-27T20:34:23.676Z,13.20
2018-09-27T20:36:50.983Z,13.57
2018-09-27T20:39:18.498Z,8.67
2018-09-27T20:41:45.762Z,8.90
2018-09-27T20:44:12.890Z,10.40
2018-09-27T20:46:40.333Z,9.97
2018-09-27T20:49:07.478Z,12.07
2018-09-27T20:51:34.564Z,11.53
2018-09-27T20:54:01.829Z,8.07
2018-09-27T20:56:28.828Z,13.27
2018-09-27T20:58:55.917Z,9.13
2018-09-27T21:01:23.433Z,11.30
2018-09-27T21:03:50.520Z,9.30
2018-09-27T21:06:17.620Z,9.03
2018-09-27T21:08:45.129Z,11.07
2018-09-27T21:11:12.201Z,10.20
2018-09-27T21:13:39.348Z,12.63
2018-09-27T21:16:06.440Z,7.90
2018-09-27T21:18:33.549Z,7.60
2018-09-27T21:21:00.731Z,7.10
2018-09-27T21:23:27.877Z,6.70
2018-09-27T21:25:54.990Z,8.07
2018-09-27T21:28:22.102Z,10.33
2018-09-27T21:30:49.225Z,9.00
2018-09-27T21:33:16.297Z,7.67
2018-09-27T21:35:43.395Z,7.80
2018-09-27T21:38:10.785Z,16.20
2018-09-27T21:40:37.929Z,10.03
2018-09-27T21:43:05.116Z,8.10
2018-09-27T21:45:32.356Z,23.93
2018-09-27T21:47:59.413Z,26.70
2018-09-27T21:50:26.591Z,12.87
2018-09-27T21:52:54.031Z,17.83
2018-09-27T21:55:21.073Z,17.00
2018-09-27T21:57:48.208Z,7.63
2018-09-27T22:00:15.376Z,16.13
2018-09-27T22:02:42.518Z,7.80
2018-09-27T22:05:09.531Z,11.93
2018-09-27T22:07:36.940Z,19.90
2018-09-27T22:10:04.261Z,8.60
2018-09-27T22:12:31.258Z,27.47
2018-09-27T22:14:58.653Z,54.57
2018-09-27T22:17:25.642Z,56.13
2018-09-27T22:19:52.790Z,19.20
2018-09-27T22:22:19.846Z,44.67
2018-09-27T22:24:47.008Z,20.90
2018-09-27T22:27:13.953Z,25.73
2018-09-27T22:29:40.997Z,11.90
2018-09-27T22:32:08.110Z,28.77
2018-09-27T22:34:35.150Z,22.90
2018-09-27T22:37:02.478Z,23.30
2018-09-27T22:39:29.481Z,65.83
2018-09-27T22:41:56.569Z,81.30
2018-09-27T22:44:23.875Z,11.60
2018-09-27T22:46:50.922Z,27.17
2018-09-27T22:49:17.986Z,10.67
2018-09-27T22:51:45.431Z,41.53
2018-09-27T22:54:12.487Z,44.97
2018-09-27T22:56:39.532Z,33.33
2018-09-27T22:59:06.536Z,9.47
2018-09-27T23:01:33.638Z,8.77
2018-09-27T23:04:00.832Z,18.10
2018-09-27T23:06:28.209Z,19.23
2018-09-27T23:08:55.326Z,12.77
2018-09-27T23:11:22.368Z,13.60
2018-09-27T23:13:49.473Z,14.20
2018-09-27T23:16:16.590Z,6.03
2018-09-27T23:18:43.657Z,8.17
2018-09-27T23:21:11.101Z,10.33
2018-09-27T23:23:38.249Z,5.97
2018-09-27T23:26:05.421Z,6.67
2018-09-27T23:28:32.820Z,9.37
2018-09-27T23:30:59.948Z,7.90
2018-09-27T23:33:27.025Z,5.87
2018-09-27T23:35:55.040Z,7.43
2018-09-27T23:38:22.107Z,7.00
2018-09-27T23:40:49.082Z,7.30
2018-09-27T23:43:16.058Z,7.13
2018-09-27T23:45:43.029Z,5.60
2018-09-27T23:48:10.091Z,7.00
2018-09-27T23:50:37.665Z,6.27
2018-09-27T23:53:04.761Z,7.40
2018-09-27T23:55:31.874Z,8.17
2018-09-27T23:57:59.237Z,7.77
